Hauptseite
METAR-TAF:

METAR-TAF

Flughäfen :

Flughafen Seychellen

Victoria, Mahé, Seychellen

Breite: 04-40S, Länge: 055-31E, Höhe: 3 m

Beobachtung

Neuester Wetterbericht von vor 56 Minuten, um 18:00 UTC
Wind 4 kt aus Süd
Temperatur 28°C
Luftfeuchtigkeit 79%
Luftdruck 1011 hPa
Sichtweite 10 km oder mehr
Leicht bewölkt in der Höhe von 2300 ft

METAR: FSIA 071800Z 19004KT 9999 FEW023 28/24 Q1011 NOSIG

Zeit: 22:56 (18:56 UTC)

Prognose

Neuester Wetterbericht von vor 1 Stunde und 56 Minuten, um 17:00 UTC
Gültige Prognose vom 07 um 18 UTC bis 08 um 18 UTC
Wind 5 kt aus Süd
Sichtweite 10 km oder mehr
Leicht bewölkt in der Höhe von 2400 ft
Übergehend zu
vom 08 um 04 UTC bis 08 um 06 UTC
Wind 5 kt aus Ost/Nordost
Aufgelockert bewölkt in der Höhe von 2200 ft

TAF: FSIA 071700Z 0718/0818 19005KT 9999 FEW024 BECMG 0804/0806 06005KT SCT022

Wetterbeobachtungen und Prognosen von mehr als 4000 Flughäfen (METAR und TAF Bericht).

Die verfügbaren Stationen werden durch gelbe und rote Markierungen auf der Karte dargestellt.

Führen Sie die Maus auf sie, um den Namen der Station zu sehen.

Darauf klicken, um die Beobachtung von Wetterbeobachtungen und Prognosen zu sehen.

Um die Karte zu ändern : klicken Sie auf den grünen Tasten mit einem schwarzen Kreuz Zum Vergrößern, auf den grünen Button mit einem Gedankenstrich zu verkleinern, oder auf die grünen Pfeile für benachbarte Karten.


METAR-TAF: